Nearby METAR Reports

 

KIND - Indianapolis, Indiana, USA
Distance from station: SW 6mi, 9km
Updated: Jul 21 2019 12:54am
Clear
Clear
 Wind from SSW
Wind: SSW 12 mph , 19 km/h
Temperature: 79°F , 26°C
Dew Point: 75°F , 24°C
Humidity: 89%
Barometer: 29.95 inHg , 1014.2 hPa
Clouds: Clear
Visibility: 10 miles , 16 km
2019/07/21 04:54 KIND 210454Z 21010KT 10SM CLR 26/24 A2995 RMK AO2 SLP132 T02610239 403390239
KEYE - Indianapolis, Indiana, USA
Distance from station: NW 5mi, 8km
Updated: Jul 21 2019 12:53am
Clear
Clear
 Wind from SSW
Wind: SSW 5 mph , 7 km/h
Temperature: 82°F , 28°C
Heat Index: 87°F , 31°C
Dew Point: 73°F , 23°C
Humidity: 74%
Barometer: 29.94 inHg , 1013.9 hPa
Clouds: Clear
Visibility: 10 miles , 16 km
2019/07/21 04:53 KEYE 210453Z AUTO 21004KT 10SM CLR 28/23 A2994 RMK AO2 SLP129 T02780233 403390239
 
KTYQ - Indianapolis Exc, Indiana, USA
Distance from station: N 17mi, 28km
Updated: Jul 21 2019 1:15am
Clear
Clear
 Wind from SW
Wind: SW 6 mph , 9 km/h
Temperature: 79°F , 26°C
Dew Point: 79°F , 26°C
Humidity: 100%
Barometer: 29.96 inHg , 1014.6 hPa
Clouds: Clear
Visibility: 10 miles , 16 km
2019/07/21 05:15 KTYQ 210515Z AUTO 23005KT 10SM CLR 26/26 A2996 RMK AO2 T02550255
KGEZ - Shelbyville, Indiana, USA
Distance from station: ESE 27mi, 43km
Updated: Jul 21 2019 12:53am
Clear
Clear
 Wind from SSW
Wind: SSW 8 mph , 13 km/h
Temperature: 81°F , 27°C
Heat Index: 86°F , 30°C
Dew Point: 73°F , 23°C
Humidity: 79%
Barometer: 29.96 inHg , 1014.6 hPa
Clouds: Clear
Visibility: 10 miles , 16 km
2019/07/21 04:53 KGEZ 210453Z AUTO 21007KT 10SM CLR 27/23 A2996 RMK AO2 SLP135 T02670233 403390239 $
 
KAID - Anderson Municip, Indiana, USA
Distance from station: NE 40mi, 64km
Updated: Jul 21 2019 1:15am
Clear
Clear
 Wind from SSW
Wind: SSW 5 mph , 7 km/h
Temperature: 79°F , 26°C
Dew Point: 73°F , 23°C
Humidity: 84%
Barometer: 29.95 inHg , 1014.2 hPa
Clouds: Clear
Visibility: 10 miles , 16 km
2019/07/21 05:15 KAID 210515Z AUTO 20004KT 10SM CLR 26/23 A2995 RMK AO2 T02630230
KBAK - Columbus/Balkala, Indiana, USA
Distance from station: SSE 40mi, 64km
Updated: Jul 20 2019 9:45pm
NOT Current
Clear
Clear
 Wind from calm
Wind: Calm
Temperature: 82°F , 28°C
Heat Index: 87°F , 31°C
Dew Point: 73°F , 23°C
Humidity: 74%
Barometer: 29.93 inHg , 1013.5 hPa
Clouds: Clear
Visibility: 10 miles , 16 km
2019/07/21 01:45 KBAK 210145Z 00000KT 10SM SKC 28/23 A2993 RMK LAST
 
KBMG - Bloomington, Indiana, USA
Distance from station: SSW 48mi, 78km
Updated: Jul 21 2019 12:53am
Clear
Clear
 Wind from S
Wind: S 8 mph , 13 km/h
Temperature: 79°F , 26°C
Dew Point: 75°F , 24°C
Humidity: 89%
Barometer: 29.98 inHg , 1015.2 hPa
Clouds: Clear
Visibility: 10 miles , 16 km
2019/07/21 04:53 KBMG 210453Z AUTO 18007KT 10SM CLR 26/24 A2998 RMK AO2 SLP142 T02560244 403280233 $
KOKK - Kokomo, Indiana, USA
Distance from station: N 53mi, 85km
Updated: Jul 21 2019 12:56am
Clear
Clear
 Wind from SSW
Wind: SSW 9 mph , 15 km/h
Temperature: 82°F , 28°C
Heat Index: 89°F , 32°C
Dew Point: 75°F , 24°C
Humidity: 79%
Barometer: 29.93 inHg , 1013.5 hPa
Clouds: Clear
Visibility: 10 miles , 16 km
2019/07/21 04:56 KOKK 210456Z AUTO 21008KT 10SM CLR 28/24 A2993 RMK AO2 SLP128 T02780239 PNO $